Wetterdaten: Woche 12.01.15 - 18.01.15 (KW3)
Datum Zeit Temp. A. Feuchte A. Luftdruck Regen Wind Richtung Sonnenschein ET UV Solar Taupunkt Windchill Windben
12.01.2015 00:00 2,5 C 79 % 1021,5 hPa 0,0 l/m 18,4 km/h (3 Bft) W 0,00 h 0,025 mm 0,0 UV-I 0 W/m -0,9 C -5,6 C 28,2 km/h (5 Bft)
12.01.2015 01:00 2,6 C 79 % 1022,1 hPa 0,0 l/m 14,4 km/h (3 Bft) W 0,00 h 0,025 mm 0,0 UV-I 0 W/m -0,6 C -3,3 C 22,3 km/h (4 Bft)
12.01.2015 02:00 2,6 C 82 % 1022,7 hPa 0,0 l/m 13,8 km/h (3 Bft) W-SW 0,00 h 0,025 mm 0,0 UV-I 0 W/m -0,1 C -3,0 C 21,3 km/h (4 Bft)
12.01.2015 03:00 2,0 C 90 % 1022,8 hPa 0,0 l/m 11,3 km/h (2 Bft) W-SW 0,00 h 0,025 mm 0,0 UV-I 0 W/m 0,4 C -2,1 C 17,7 km/h (3 Bft)
12.01.2015 04:00 2,3 C 90 % 1022,8 hPa 0,0 l/m 13,0 km/h (3 Bft) W-SW 0,00 h 0,000 mm 0,0 UV-I 0 W/m 0,9 C -2,8 C 20,5 km/h (4 Bft)
12.01.2015 05:00 2,4 C 91 % 1022,3 hPa 0,0 l/m 14,3 km/h (3 Bft) W 0,00 h 0,000 mm 0,0 UV-I 0 W/m 1,1 C -3,5 C 21,3 km/h (4 Bft)
12.01.2015 06:00 2,3 C 93 % 1022,1 hPa 0,0 l/m 13,5 km/h (3 Bft) W-SW 0,00 h 0,000 mm 0,0 UV-I 0 W/m 1,3 C -3,1 C 20,5 km/h (4 Bft)
12.01.2015 07:00 2,7 C 92 % 1022,4 hPa 0,0 l/m 15,2 km/h (3 Bft) W-SW 0,00 h 0,000 mm 0,0 UV-I 0 W/m 1,6 C -3,7 C 23,4 km/h (4 Bft)
12.01.2015 08:00 3,1 C 91 % 1022,7 hPa 0,0 l/m 17,6 km/h (3 Bft) W-SW 0,00 h 0,000 mm 0,0 UV-I 6 W/m 1,8 C -4,4 C 26,7 km/h (4 Bft)
12.01.2015 09:00 3,2 C 89 % 1022,6 hPa 0,0 l/m 14,9 km/h (3 Bft) W-SW 0,00 h 0,025 mm 0,0 UV-I 14 W/m 1,6 C -2,9 C 23,2 km/h (4 Bft)
12.01.2015 10:00 2,8 C 91 % 1022,4 hPa 0,0 l/m 14,5 km/h (3 Bft) SW 0,00 h 0,025 mm 0,0 UV-I 24 W/m 1,5 C -3,1 C 22,9 km/h (4 Bft)
12.01.2015 11:00 3,1 C 88 % 1022,3 hPa 0,0 l/m 14,8 km/h (3 Bft) W-SW 0,00 h 0,025 mm 0,0 UV-I 19 W/m 1,3 C -2,9 C 22,5 km/h (4 Bft)
12.01.2015 12:00 3,4 C 86 % 1021,5 hPa 0,0 l/m 14,6 km/h (3 Bft) W-SW 0,00 h 0,025 mm 0,0 UV-I 23 W/m 1,3 C -2,4 C 23,2 km/h (4 Bft)
12.01.2015 13:00 3,8 C 84 % 1020,7 hPa 0,0 l/m 14,9 km/h (3 Bft) SW 0,12 h 0,025 mm 0,0 UV-I 37 W/m 1,2 C -2,2 C 23,6 km/h (4 Bft)
12.01.2015 14:00 3,7 C 83 % 1020,4 hPa 0,0 l/m 13,7 km/h (3 Bft) SW 0,00 h 0,025 mm 0,0 UV-I 20 W/m 1,1 C -1,6 C 21,7 km/h (4 Bft)
12.01.2015 15:00 3,8 C 82 % 1020,3 hPa 0,0 l/m 12,1 km/h (2 Bft) W-SW 0,00 h 0,025 mm 0,0 UV-I 11 W/m 1,0 C -0,5 C 19,5 km/h (3 Bft)
12.01.2015 16:00 3,9 C 81 % 1020,5 hPa 0,0 l/m 10,2 km/h (2 Bft) SW 0,00 h 0,025 mm 0,0 UV-I 0 W/m 0,9 C 0,9 C 16,5 km/h (3 Bft)
12.01.2015 17:00 4,2 C 79 % 1020,6 hPa 0,0 l/m 12,1 km/h (2 Bft) SW 0,00 h 0,025 mm 0,0 UV-I 0 W/m 0,8 C -0,1 C 19,3 km/h (3 Bft)
12.01.2015 18:00 4,4 C 78 % 1020,7 hPa 0,0 l/m 15,8 km/h (3 Bft) W-SW 0,00 h 0,025 mm 0,0 UV-I 0 W/m 0,9 C -1,8 C 24,6 km/h (4 Bft)
12.01.2015 19:00 4,2 C 81 % 1020,5 hPa 0,0 l/m 12,4 km/h (2 Bft) W-SW 0,00 h 0,025 mm 0,0 UV-I 0 W/m 1,3 C -0,2 C 19,1 km/h (3 Bft)
12.01.2015 20:00 3,9 C 85 % 1020,2 hPa 0,0 l/m 9,5 km/h (2 Bft) SW 0,00 h 0,025 mm 0,0 UV-I 0 W/m 1,6 C 1,3 C 14,9 km/h (3 Bft)
12.01.2015 21:00 4,3 C 82 % 1020,2 hPa 0,0 l/m 6,7 km/h (2 Bft) SW 0,00 h 0,025 mm 0,0 UV-I 0 W/m 1,6 C 3,3 C 11,7 km/h (2 Bft)
12.01.2015 22:00 4,8 C 79 % 1020,2 hPa 0,0 l/m 8,9 km/h (2 Bft) W-SW 0,00 h 0,025 mm 0,0 UV-I 0 W/m 1,5 C 2,6 C 14,8 km/h (3 Bft)
12.01.2015 23:00 5,0 C 80 % 1019,6 hPa 0,0 l/m 11,9 km/h (2 Bft) SW 0,00 h 0,025 mm 0,0 UV-I 0 W/m 1,7 C 1,0 C 18,5 km/h (3 Bft)
13.01.2015 00:00 5,4 C 79 % 1019,6 hPa 0,0 l/m 13,7 km/h (3 Bft) SW 0,00 h 0,025 mm 0,0 UV-I 0 W/m 2,0 C 0,5 C 21,0 km/h (4 Bft)
13.01.2015 01:00 5,5 C 77 % 1019,4 hPa 0,0 l/m 11,7 km/h (2 Bft) W-SW 0,00 h 0,025 mm 0,0 UV-I 0 W/m 1,8 C 1,7 C 18,4 km/h (3 Bft)
13.01.2015 02:00 5,1 C 69 % 1019,0 hPa 0,0 l/m 12,1 km/h (2 Bft) SW 0,00 h 0,025 mm 0,0 UV-I 0 W/m -0,0 C 0,9 C 19,0 km/h (3 Bft)
13.01.2015 03:00 3,7 C 71 % 1018,9 hPa 0,0 l/m 8,8 km/h (2 Bft) S-SW 0,00 h 0,051 mm 0,0 UV-I 0 W/m -1,0 C 1,6 C 14,1 km/h (3 Bft)
13.01.2015 04:00 3,1 C 73 % 1018,5 hPa 0,0 l/m 8,5 km/h (2 Bft) SW 0,00 h 0,000 mm 0,0 UV-I 0 W/m -1,2 C 1,3 C 13,5 km/h (3 Bft)
13.01.2015 05:00 3,4 C 65 % 1018,2 hPa 0,0 l/m 9,0 km/h (2 Bft) W-SW 0,00 h 0,025 mm 0,0 UV-I 0 W/m -2,5 C 1,1 C 14,1 km/h (3 Bft)
13.01.2015 06:00 2,9 C 64 % 1017,9 hPa 0,0 l/m 6,2 km/h (2 Bft) W-SW 0,00 h 0,025 mm 0,0 UV-I 0 W/m -3,3 C 2,4 C 10,0 km/h (2 Bft)
13.01.2015 07:00 2,6 C 66 % 1017,7 hPa 0,0 l/m 4,3 km/h (1 Bft) SW 0,00 h 0,025 mm 0,0 UV-I 0 W/m -3,1 C 2,6 C 7,7 km/h (2 Bft)
13.01.2015 08:00 2,4 C 69 % 1017,5 hPa 0,0 l/m 1,5 km/h (1 Bft) W-SW 0,05 h 0,025 mm 0,0 UV-I 22 W/m -2,7 C 2,4 C 3,6 km/h (1 Bft)
13.01.2015 09:00 4,4 C 65 % 1017,3 hPa 0,0 l/m 4,0 km/h (1 Bft) SW 1,00 h 0,025 mm 0,5 UV-I 123 W/m -1,5 C 4,2 C 7,7 km/h (2 Bft)
13.01.2015 10:00 6,3 C 55 % 1016,9 hPa 0,0 l/m 6,3 km/h (2 Bft) S 1,00 h 0,076 mm 0,6 UV-I 248 W/m -2,1 C 5,6 C 10,4 km/h (2 Bft)
13.01.2015 11:00 7,2 C 52 % 1016,3 hPa 0,0 l/m 7,0 km/h (2 Bft) W-SW 1,00 h 0,127 mm 0,8 UV-I 306 W/m -2,0 C 6,0 C 11,3 km/h (2 Bft)
13.01.2015 12:00 7,9 C 51 % 1015,4 hPa 0,0 l/m 8,6 km/h (2 Bft) S-SW 1,00 h 0,178 mm 0,9 UV-I 317 W/m -1,7 C 6,2 C 14,1 km/h (3 Bft)
13.01.2015 13:00 8,7 C 49 % 1014,2 hPa 0,0 l/m 12,7 km/h (3 Bft) S 1,00 h 0,178 mm 0,8 UV-I 286 W/m -1,4 C 4,9 C 19,3 km/h (3 Bft)
13.01.2015 14:00 9,0 C 49 % 1013,5 hPa 0,0 l/m 14,0 km/h (3 Bft) S 1,00 h 0,203 mm 0,7 UV-I 264 W/m -1,2 C 4,4 C 21,8 km/h (4 Bft)
13.01.2015 15:00 8,6 C 49 % 1013,2 hPa 0,0 l/m 13,1 km/h (3 Bft) S 1,00 h 0,000 mm 0,7 UV-I 264 W/m -1,5 C 4,4 C 18,9 km/h (3 Bft)
13.01.2015 16:00 7,8 C 49 % 1012,7 hPa 0,0 l/m 14,2 km/h (3 Bft) S 0,37 h 0,000 mm 0,7 UV-I 264 W/m -2,2 C 2,9 C 21,3 km/h (4 Bft)
13.01.2015 17:00 7,7 C 49 % 1012,4 hPa 0,0 l/m 16,0 km/h (3 Bft) S 0,00 h 0,076 mm 0,0 UV-I 0 W/m -2,4 C 1,9 C 23,9 km/h (4 Bft)
13.01.2015 18:00 7,9 C 48 % 1012,3 hPa 0,0 l/m 15,3 km/h (3 Bft) S 0,00 h 0,076 mm 0,0 UV-I 0 W/m -2,3 C 2,6 C 22,2 km/h (4 Bft)
13.01.2015 19:00 7,9 C 50 % 1012,3 hPa 0,0 l/m 9,2 km/h (2 Bft) S-SW 0,00 h 0,076 mm 0,0 UV-I 0 W/m -2,0 C 5,7 C 14,3 km/h (3 Bft)
13.01.2015 20:00 7,8 C 51 % 1011,9 hPa 0,0 l/m 11,0 km/h (2 Bft) S-SW 0,00 h 0,076 mm 0,0 UV-I 0 W/m -1,7 C 4,7 C 17,7 km/h (3 Bft)
13.01.2015 21:00 7,7 C 52 % 1011,5 hPa 0,0 l/m 14,4 km/h (3 Bft) S 0,00 h 0,076 mm 0,0 UV-I 0 W/m -1,5 C 2,7 C 22,3 km/h (4 Bft)
13.01.2015 22:00 7,9 C 52 % 1011,5 hPa 0,0 l/m 11,8 km/h (2 Bft) S 0,00 h 0,076 mm 0,0 UV-I 0 W/m -1,3 C 4,3 C 18,2 km/h (3 Bft)
13.01.2015 23:00 8,1 C 54 % 1011,4 hPa 0,0 l/m 11,4 km/h (2 Bft) S 0,00 h 0,076 mm 0,0 UV-I 0 W/m -0,6 C 4,9 C 17,5 km/h (3 Bft)
14.01.2015 00:00 8,4 C 56 % 1011,1 hPa 0,0 l/m 9,7 km/h (2 Bft) S-SW 0,00 h 0,076 mm 0,0 UV-I 0 W/m 0,2 C 6,1 C 15,1 km/h (3 Bft)
14.01.2015 01:00 7,6 C 59 % 1011,2 hPa 0,0 l/m 7,2 km/h (2 Bft) S-SW 0,00 h 0,051 mm 0,0 UV-I 0 W/m 0,2 C 6,6 C 11,9 km/h (2 Bft)
14.01.2015 02:00 6,1 C 73 % 1011,6 hPa 0,4 l/m 5,6 km/h (2 Bft) S 0,00 h 0,051 mm 0,0 UV-I 0 W/m 1,5 C 5,6 C 9,6 km/h (2 Bft)
14.01.2015 03:00 4,8 C 87 % 1011,1 hPa 0,4 l/m 8,1 km/h (2 Bft) S 0,00 h 0,025 mm 0,0 UV-I 0 W/m 2,9 C 3,3 C 12,5 km/h (2 Bft)
14.01.2015 04:00 5,1 C 91 % 1011,2 hPa 0,6 l/m 8,6 km/h (2 Bft) SW 0,00 h 0,000 mm 0,0 UV-I 0 W/m 3,7 C 3,3 C 13,6 km/h (3 Bft)
14.01.2015 05:00 5,0 C 93 % 1011,5 hPa 1,2 l/m 9,7 km/h (2 Bft) S-SW 0,00 h 0,000 mm 0,0 UV-I 0 W/m 4,0 C 2,4 C 15,4 km/h (3 Bft)
14.01.2015 06:00 5,0 C 91 % 1011,9 hPa 0,2 l/m 11,4 km/h (2 Bft) SW 0,00 h 0,000 mm 0,0 UV-I 0 W/m 3,7 C 1,3 C 18,4 km/h (3 Bft)
14.01.2015 07:00 4,7 C 90 % 1012,2 hPa 0,2 l/m 12,3 km/h (2 Bft) S 0,00 h 0,000 mm 0,0 UV-I 0 W/m 3,2 C 0,3 C 19,4 km/h (3 Bft)
14.01.2015 08:00 4,6 C 91 % 1012,3 hPa 0,0 l/m 9,5 km/h (2 Bft) S-SW 0,00 h 0,000 mm 0,0 UV-I 24 W/m 3,3 C 2,1 C 15,0 km/h (3 Bft)
14.01.2015 09:00 4,9 C 90 % 1012,7 hPa 0,0 l/m 10,4 km/h (2 Bft) SW 0,47 h 0,025 mm 0,0 UV-I 55 W/m 3,4 C 1,9 C 15,9 km/h (3 Bft)
14.01.2015 10:00 5,1 C 88 % 1013,4 hPa 0,0 l/m 8,5 km/h (2 Bft) W-SW 0,98 h 0,025 mm 0,5 UV-I 87 W/m 3,2 C 3,2 C 13,8 km/h (3 Bft)
14.01.2015 11:00 5,4 C 86 % 1013,5 hPa 0,0 l/m 7,3 km/h (2 Bft) SW 1,00 h 0,051 mm 0,5 UV-I 134 W/m 3,2 C 4,2 C 11,8 km/h (2 Bft)
14.01.2015 12:00 5,0 C 84 % 1013,4 hPa 0,0 l/m 8,4 km/h (2 Bft) W-SW 1,00 h 0,051 mm 0,5 UV-I 78 W/m 2,5 C 3,3 C 13,6 km/h (3 Bft)
14.01.2015 13:00 4,8 C 85 % 1013,5 hPa 0,0 l/m 9,6 km/h (2 Bft) SW 0,73 h 0,051 mm 0,0 UV-I 61 W/m 2,5 C 2,3 C 15,2 km/h (3 Bft)
14.01.2015 14:00 4,6 C 84 % 1013,3 hPa 0,0 l/m 9,6 km/h (2 Bft) S-SW 0,87 h 0,025 mm 0,0 UV-I 58 W/m 2,1 C 2,0 C 14,7 km/h (3 Bft)
14.01.2015 15:00 4,3 C 85 % 1013,0 hPa 0,0 l/m 9,8 km/h (2 Bft) S-SW 0,60 h 0,025 mm 0,0 UV-I 53 W/m 2,0 C 1,6 C 15,1 km/h (3 Bft)
14.01.2015 16:00 4,0 C 86 % 1012,6 hPa 0,0 l/m 8,2 km/h (2 Bft) S 0,00 h 0,025 mm 0,0 UV-I 9 W/m 1,8 C 2,3 C 12,8 km/h (3 Bft)
14.01.2015 17:00 4,2 C 82 % 1012,3 hPa 0,0 l/m 9,6 km/h (2 Bft) S 0,00 h 0,025 mm 0,0 UV-I 0 W/m 1,4 C 1,6 C 14,7 km/h (3 Bft)
14.01.2015 18:00 3,6 C 88 % 1012,6 hPa 0,6 l/m 12,7 km/h (3 Bft) SW 0,00 h 0,025 mm 0,0 UV-I 0 W/m 1,8 C -1,1 C 20,3 km/h (4 Bft)
14.01.2015 19:00 2,0 C 92 % 1013,8 hPa 1,0 l/m 14,2 km/h (3 Bft) W-SW 0,00 h 0,025 mm 0,0 UV-I 0 W/m 0,8 C -3,6 C 22,6 km/h (4 Bft)
14.01.2015 20:00 1,3 C 93 % 1015,3 hPa 0,0 l/m 12,2 km/h (2 Bft) W 0,00 h 0,000 mm 0,0 UV-I 0 W/m 0,4 C -3,5 C 18,9 km/h (3 Bft)
14.01.2015 21:00 0,9 C 94 % 1016,8 hPa 0,4 l/m 12,1 km/h (2 Bft) W 0,00 h 0,000 mm 0,0 UV-I 0 W/m 0,1 C -3,8 C 18,5 km/h (3 Bft)
14.01.2015 22:00 0,8 C 94 % 1018,0 hPa 0,0 l/m 9,1 km/h (2 Bft) W-SW 0,00 h 0,000 mm 0,0 UV-I 0 W/m -0,1 C -1,9 C 14,3 km/h (3 Bft)
14.01.2015 23:00 0,9 C 91 % 1018,6 hPa 0,0 l/m 12,7 km/h (3 Bft) W-SW 0,00 h 0,000 mm 0,0 UV-I 0 W/m -0,4 C -4,3 C 19,8 km/h (3 Bft)
15.01.2015 00:00 0,6 C 90 % 1018,8 hPa 0,0 l/m 8,6 km/h (2 Bft) W-SW 0,00 h 0,000 mm 0,0 UV-I 0 W/m -0,9 C -1,8 C 13,8 km/h (3 Bft)
15.01.2015 01:00 -0,1 C 92 % 1018,7 hPa 0,0 l/m 5,3 km/h (1 Bft) SW 0,00 h 0,000 mm 0,0 UV-I 0 W/m -1,3 C -0,6 C 9,3 km/h (2 Bft)
15.01.2015 02:00 -0,3 C 92 % 1018,5 hPa 0,0 l/m 3,1 km/h (1 Bft) S 0,00 h 0,000 mm 0,0 UV-I 0 W/m -1,4 C -0,3 C 5,7 km/h (2 Bft)
15.01.2015 03:00 -0,3 C 92 % 1017,7 hPa 0,0 l/m 1,1 km/h (0 Bft) N 0,00 h 0,000 mm 0,0 UV-I 0 W/m -1,5 C -0,4 C 2,2 km/h (1 Bft)
15.01.2015 04:00 -1,0 C 93 % 1016,9 hPa 0,0 l/m 2,0 km/h (1 Bft) S-SO 0,00 h 0,000 mm 0,0 UV-I 0 W/m -2,0 C -1,0 C 3,6 km/h (1 Bft)
15.01.2015 05:00 -0,5 C 95 % 1016,0 hPa 0,0 l/m 2,9 km/h (1 Bft) S 0,00 h 0,000 mm 0,0 UV-I 0 W/m -1,2 C -0,8 C 5,4 km/h (1 Bft)
15.01.2015 06:00 0,6 C 94 % 1015,7 hPa 0,0 l/m 4,8 km/h (1 Bft) S-SO 0,00 h 0,000 mm 0,0 UV-I 0 W/m -0,3 C 0,1 C 8,6 km/h (2 Bft)
15.01.2015 07:00 0,9 C 93 % 1015,0 hPa 0,0 l/m 3,9 km/h (1 Bft) S-SO 0,00 h 0,000 mm 0,0 UV-I 0 W/m -0,1 C 0,8 C 6,7 km/h (2 Bft)
15.01.2015 08:00 1,3 C 93 % 1014,5 hPa 0,0 l/m 1,6 km/h (1 Bft) N 0,00 h 0,000 mm 0,0 UV-I 12 W/m 0,2 C 1,2 C 3,0 km/h (1 Bft)
15.01.2015 09:00 1,6 C 92 % 1014,3 hPa 0,0 l/m 3,2 km/h (1 Bft) S 0,42 h 0,000 mm 0,0 UV-I 53 W/m 0,5 C 1,5 C 5,7 km/h (2 Bft)
15.01.2015 10:00 2,4 C 90 % 1013,9 hPa 0,0 l/m 6,6 km/h (2 Bft) S 1,00 h 0,025 mm 0,5 UV-I 130 W/m 1,0 C 1,4 C 10,8 km/h (2 Bft)
15.01.2015 11:00 3,8 C 87 % 1013,3 hPa 0,0 l/m 7,9 km/h (2 Bft) S-SW 1,00 h 0,051 mm 0,6 UV-I 181 W/m 1,9 C 2,3 C 12,6 km/h (2 Bft)
15.01.2015 12:00 4,6 C 84 % 1012,9 hPa 0,0 l/m 9,3 km/h (2 Bft) S 1,00 h 0,076 mm 0,6 UV-I 128 W/m 2,2 C 2,2 C 14,4 km/h (3 Bft)
15.01.2015 13:00 4,5 C 86 % 1012,0 hPa 0,0 l/m 7,5 km/h (2 Bft) S 1,00 h 0,076 mm 0,5 UV-I 85 W/m 2,5 C 3,1 C 11,2 km/h (2 Bft)
15.01.2015 14:00 5,0 C 83 % 1011,0 hPa 0,0 l/m 8,1 km/h (2 Bft) S 0,68 h 0,051 mm 0,5 UV-I 64 W/m 2,4 C 3,5 C 12,1 km/h (2 Bft)
15.01.2015 15:00 5,2 C 83 % 1010,7 hPa 0,0 l/m 4,9 km/h (1 Bft) S-SO 0,08 h 0,051 mm 0,0 UV-I 34 W/m 2,5 C 4,8 C 8,2 km/h (2 Bft)
15.01.2015 16:00 5,2 C 79 % 1010,2 hPa 0,0 l/m 4,4 km/h (1 Bft) S 0,00 h 0,025 mm 0,0 UV-I 8 W/m 1,8 C 4,9 C 7,8 km/h (2 Bft)
15.01.2015 17:00 4,9 C 79 % 1009,7 hPa 0,0 l/m 2,7 km/h (1 Bft) SW 0,00 h 0,000 mm 0,0 UV-I 0 W/m 1,6 C 4,8 C 5,1 km/h (1 Bft)
15.01.2015 18:00 4,1 C 79 % 1009,5 hPa 0,0 l/m 6,4 km/h (2 Bft) S-SW 0,00 h 0,025 mm 0,0 UV-I 0 W/m 0,8 C 3,5 C 10,7 km/h (2 Bft)
15.01.2015 19:00 3,5 C 79 % 1009,3 hPa 0,0 l/m 4,0 km/h (1 Bft) S 0,00 h 0,025 mm 0,0 UV-I 0 W/m 0,2 C 3,4 C 6,3 km/h (2 Bft)
15.01.2015 20:00 2,7 C 82 % 1008,9 hPa 0,0 l/m 2,5 km/h (1 Bft) NW 0,00 h 0,025 mm 0,0 UV-I 0 W/m -0,0 C 2,7 C 4,5 km/h (1 Bft)
15.01.2015 21:00 1,8 C 86 % 1009,0 hPa 0,0 l/m 2,2 km/h (1 Bft) W 0,00 h 0,000 mm 0,0 UV-I 0 W/m -0,3 C 1,8 C 4,0 km/h (1 Bft)
15.01.2015 22:00 1,2 C 88 % 1009,3 hPa 0,0 l/m 0,9 km/h (0 Bft) W-NW 0,00 h 0,000 mm 0,0 UV-I 0 W/m -0,6 C 1,2 C 2,0 km/h (1 Bft)
15.01.2015 23:00 0,5 C 89 % 1009,5 hPa 0,0 l/m 0,6 km/h (0 Bft) N 0,00 h 0,000 mm 0,0 UV-I 0 W/m -1,1 C 0,5 C 1,6 km/h (1 Bft)
16.01.2015 00:00 -0,2 C 92 % 1009,3 hPa 0,0 l/m 0,9 km/h (0 Bft) N 0,00 h 0,000 mm 0,0 UV-I 0 W/m -1,3 C -0,2 C 1,8 km/h (1 Bft)
16.01.2015 01:00 -0,3 C 92 % 1009,4 hPa 0,0 l/m 1,0 km/h (0 Bft) NW 0,00 h 0,000 mm 0,0 UV-I 0 W/m -1,3 C -0,3 C 1,9 km/h (1 Bft)
16.01.2015 02:00 -0,6 C 93 % 1009,7 hPa 0,0 l/m 0,2 km/h (0 Bft) N 0,00 h 0,000 mm 0,0 UV-I 0 W/m -1,6 C -0,6 C 1,0 km/h (0 Bft)
16.01.2015 03:00 -0,7 C 93 % 1009,7 hPa 0,0 l/m 0,2 km/h (0 Bft) N 0,00 h 0,000 mm 0,0 UV-I 0 W/m -1,7 C -0,7 C 0,8 km/h (0 Bft)
16.01.2015 04:00 -1,1 C 94 % 1009,6 hPa 0,0 l/m 0,8 km/h (0 Bft) N-NO 0,00 h 0,000 mm 0,0 UV-I 0 W/m -2,0 C -1,1 C 1,9 km/h (1 Bft)
16.01.2015 05:00 -1,1 C 95 % 1009,8 hPa 0,0 l/m 0,5 km/h (0 Bft) N 0,00 h 0,000 mm 0,0 UV-I 0 W/m -1,9 C -1,1 C 1,4 km/h (1 Bft)
16.01.2015 06:00 -0,7 C 95 % 1009,8 hPa 0,0 l/m 0,6 km/h (0 Bft) NW 0,00 h 0,000 mm 0,0 UV-I 0 W/m -1,4 C -0,7 C 1,8 km/h (1 Bft)
16.01.2015 07:00 -0,6 C 95 % 1010,0 hPa 0,0 l/m 0,0 km/h (0 Bft) N 0,00 h 0,000 mm 0,0 UV-I 5 W/m -1,3 C -0,6 C 0,4 km/h (0 Bft)
16.01.2015 08:00 -0,4 C 95 % 1010,5 hPa 0,0 l/m 0,1 km/h (0 Bft) N 0,42 h 0,000 mm 0,0 UV-I 46 W/m -1,0 C -0,4 C 0,3 km/h (0 Bft)
16.01.2015 09:00 0,7 C 96 % 1010,7 hPa 0,0 l/m 0,7 km/h (0 Bft) N 0,75 h 0,025 mm 0,0 UV-I 68 W/m 0,1 C 0,7 C 1,4 km/h (1 Bft)
16.01.2015 10:00 1,8 C 94 % 1010,5 hPa 0,0 l/m 1,0 km/h (0 Bft) O-NO 1,00 h 0,025 mm 0,0 UV-I 78 W/m 0,9 C 1,8 C 2,3 km/h (1 Bft)
16.01.2015 11:00 3,0 C 91 % 1010,2 hPa 0,0 l/m 0,6 km/h (0 Bft) N 1,00 h 0,025 mm 0,5 UV-I 109 W/m 1,6 C 3,0 C 1,5 km/h (1 Bft)
16.01.2015 12:00 4,1 C 88 % 1010,0 hPa 0,0 l/m 0,6 km/h (0 Bft) N 1,00 h 0,051 mm 0,6 UV-I 129 W/m 2,3 C 4,1 C 1,3 km/h (1 Bft)
16.01.2015 13:00 5,6 C 82 % 1009,2 hPa 0,0 l/m 0,2 km/h (0 Bft) N 1,00 h 0,052 mm 0,6 UV-I 175 W/m 2,8 C 5,6 C 0,8 km/h (0 Bft)
16.01.2015 14:00 6,0 C 81 % 1008,4 hPa 0,0 l/m 1,4 km/h (1 Bft) N 1,00 h 0,076 mm 0,5 UV-I 74 W/m 3,0 C 6,0 C 3,3 km/h (1 Bft)
16.01.2015 15:00 5,5 C 79 % 1007,8 hPa 0,0 l/m 6,5 km/h (2 Bft) O-NO 0,33 h 0,025 mm 0,0 UV-I 41 W/m 2,2 C 4,7 C 11,8 km/h (2 Bft)
16.01.2015 16:00 4,1 C 83 % 1008,2 hPa 0,0 l/m 5,5 km/h (2 Bft) O-NO 0,00 h 0,025 mm 0,0 UV-I 10 W/m 1,4 C 3,5 C 10,6 km/h (2 Bft)
16.01.2015 17:00 3,0 C 86 % 1008,2 hPa 0,0 l/m 5,3 km/h (1 Bft) O 0,00 h 0,000 mm 0,0 UV-I 0 W/m 1,0 C 2,5 C 10,8 km/h (2 Bft)
16.01.2015 18:00 2,3 C 89 % 1007,8 hPa 0,0 l/m 6,4 km/h (2 Bft) O-NO 0,00 h 0,000 mm 0,0 UV-I 0 W/m 0,7 C 1,5 C 12,3 km/h (2 Bft)
16.01.2015 19:00 1,7 C 91 % 1007,8 hPa 0,0 l/m 4,7 km/h (1 Bft) O-NO 0,00 h 0,000 mm 0,0 UV-I 0 W/m 0,5 C 1,4 C 9,9 km/h (2 Bft)
16.01.2015 20:00 1,7 C 92 % 1007,6 hPa 0,0 l/m 3,3 km/h (1 Bft) O-NO 0,00 h 0,000 mm 0,0 UV-I 0 W/m 0,6 C 1,6 C 7,0 km/h (2 Bft)
16.01.2015 21:00 1,4 C 93 % 1007,4 hPa 0,0 l/m 4,0 km/h (1 Bft) O-NO 0,00 h 0,000 mm 0,0 UV-I 0 W/m 0,5 C 0,9 C 8,3 km/h (2 Bft)
16.01.2015 22:00 1,2 C 94 % 1007,3 hPa 0,0 l/m 3,0 km/h (1 Bft) O-NO 0,00 h 0,000 mm 0,0 UV-I 0 W/m 0,3 C 0,8 C 6,3 km/h (2 Bft)
16.01.2015 23:00 0,9 C 94 % 1007,3 hPa 0,0 l/m 0,8 km/h (0 Bft) NO 0,00 h 0,000 mm 0,0 UV-I 0 W/m 0,1 C 0,9 C 2,6 km/h (1 Bft)
17.01.2015 00:00 0,7 C 94 % 1007,5 hPa 0,0 l/m 1,7 km/h (1 Bft) N 0,00 h 0,000 mm 0,0 UV-I 0 W/m -0,1 C 0,7 C 3,9 km/h (1 Bft)
17.01.2015 01:00 0,4 C 94 % 1007,8 hPa 0,0 l/m 0,0 km/h (0 Bft) N 0,00 h 0,000 mm 0,0 UV-I 0 W/m -0,4 C 0,4 C 0,2 km/h (0 Bft)
17.01.2015 02:00 0,5 C 95 % 1008,4 hPa 0,0 l/m 0,5 km/h (0 Bft) N 0,00 h 0,000 mm 0,0 UV-I 0 W/m -0,2 C 0,5 C 1,2 km/h (1 Bft)
17.01.2015 03:00 0,7 C 95 % 1008,8 hPa 0,0 l/m 0,1 km/h (0 Bft) N 0,00 h 0,000 mm 0,0 UV-I 0 W/m -0,0 C 0,7 C 0,5 km/h (0 Bft)
17.01.2015 04:00 0,8 C 95 % 1009,1 hPa 0,0 l/m 0,1 km/h (0 Bft) N 0,00 h 0,000 mm 0,0 UV-I 0 W/m 0,2 C 0,8 C 1,0 km/h (0 Bft)
17.01.2015 05:00 1,0 C 96 % 1009,5 hPa 0,6 l/m 0,0 km/h (0 Bft) N 0,00 h 0,000 mm 0,0 UV-I 0 W/m 0,4 C 1,0 C 0,0 km/h (0 Bft)
17.01.2015 06:00 1,2 C 96 % 1010,5 hPa 0,6 l/m 0,1 km/h (0 Bft) N 0,00 h 0,000 mm 0,0 UV-I 0 W/m 0,6 C 1,2 C 0,3 km/h (0 Bft)
17.01.2015 07:00 1,4 C 96 % 1011,5 hPa 0,4 l/m 0,3 km/h (0 Bft) N 0,00 h 0,000 mm 0,0 UV-I 0 W/m 0,8 C 1,4 C 1,5 km/h (1 Bft)
17.01.2015 08:00 1,5 C 96 % 1012,7 hPa 0,0 l/m 1,2 km/h (1 Bft) N 0,00 h 0,000 mm 0,0 UV-I 6 W/m 1,0 C 1,5 C 2,9 km/h (1 Bft)
17.01.2015 09:00 1,6 C 97 % 1013,4 hPa 0,2 l/m 1,1 km/h (1 Bft) N 0,00 h 0,000 mm 0,0 UV-I 26 W/m 1,1 C 1,6 C 2,8 km/h (1 Bft)
17.01.2015 10:00 1,7 C 96 % 1014,1 hPa 0,0 l/m 0,3 km/h (0 Bft) N 0,43 h 0,000 mm 0,0 UV-I 52 W/m 1,2 C 1,7 C 1,3 km/h (1 Bft)
17.01.2015 11:00 2,0 C 96 % 1014,2 hPa 0,0 l/m 0,8 km/h (0 Bft) N 0,70 h 0,025 mm 0,0 UV-I 54 W/m 1,5 C 2,0 C 2,0 km/h (1 Bft)
17.01.2015 12:00 2,4 C 96 % 1014,6 hPa 0,0 l/m 0,9 km/h (0 Bft) N 0,37 h 0,025 mm 0,0 UV-I 37 W/m 1,9 C 2,4 C 2,2 km/h (1 Bft)
17.01.2015 13:00 2,7 C 96 % 1014,9 hPa 0,0 l/m 0,3 km/h (0 Bft) N 0,30 h 0,025 mm 0,0 UV-I 40 W/m 2,2 C 2,7 C 1,2 km/h (1 Bft)
17.01.2015 14:00 3,0 C 96 % 1014,9 hPa 0,0 l/m 1,3 km/h (1 Bft) N 0,38 h 0,025 mm 0,0 UV-I 47 W/m 2,4 C 3,0 C 3,0 km/h (1 Bft)
17.01.2015 15:00 3,0 C 94 % 1015,3 hPa 0,0 l/m 0,8 km/h (0 Bft) N 0,00 h 0,025 mm 0,0 UV-I 32 W/m 2,2 C 3,0 C 2,4 km/h (1 Bft)
17.01.2015 16:00 2,8 C 95 % 1015,8 hPa 0,2 l/m 0,9 km/h (0 Bft) N 0,00 h 0,000 mm 0,0 UV-I 9 W/m 2,0 C 2,8 C 2,2 km/h (1 Bft)
17.01.2015 17:00 2,3 C 95 % 1016,3 hPa 0,0 l/m 3,4 km/h (1 Bft) N 0,00 h 0,000 mm 0,0 UV-I 0 W/m 1,6 C 2,3 C 5,8 km/h (2 Bft)
17.01.2015 18:00 1,9 C 96 % 1016,6 hPa 0,0 l/m 1,7 km/h (1 Bft) N 0,00 h 0,000 mm 0,0 UV-I 0 W/m 1,3 C 1,9 C 3,4 km/h (1 Bft)
17.01.2015 19:00 1,6 C 96 % 1017,0 hPa 0,0 l/m 0,3 km/h (0 Bft) N 0,00 h 0,000 mm 0,0 UV-I 0 W/m 1,1 C 1,6 C 0,7 km/h (0 Bft)
17.01.2015 20:00 1,5 C 96 % 1017,4 hPa 0,0 l/m 0,1 km/h (0 Bft) N 0,00 h 0,000 mm 0,0 UV-I 0 W/m 0,9 C 1,5 C 0,7 km/h (0 Bft)
17.01.2015 21:00 1,4 C 96 % 1017,6 hPa 0,0 l/m 0,1 km/h (0 Bft) N 0,00 h 0,000 mm 0,0 UV-I 0 W/m 0,8 C 1,4 C 0,3 km/h (0 Bft)
17.01.2015 22:00 1,4 C 96 % 1017,9 hPa 0,0 l/m 0,3 km/h (0 Bft) N 0,00 h 0,000 mm 0,0 UV-I 0 W/m 0,9 C 1,4 C 0,9 km/h (0 Bft)
17.01.2015 23:00 1,3 C 97 % 1018,2 hPa 0,2 l/m 0,0 km/h (0 Bft) N 0,00 h 0,000 mm 0,0 UV-I 0 W/m 0,9 C 1,3 C 0,1 km/h (0 Bft)
18.01.2015 00:00 1,4 C 97 % 1018,4 hPa 0,0 l/m 0,2 km/h (0 Bft) N 0,00 h 0,000 mm 0,0 UV-I 0 W/m 0,9 C 1,4 C 0,9 km/h (0 Bft)
18.01.2015 01:00 1,6 C 97 % 1018,3 hPa 0,0 l/m 0,1 km/h (0 Bft) N 0,00 h 0,000 mm 0,0 UV-I 0 W/m 1,1 C 1,6 C 0,6 km/h (0 Bft)
18.01.2015 02:00 1,4 C 97 % 1018,5 hPa 0,0 l/m 1,0 km/h (0 Bft) N 0,00 h 0,000 mm 0,0 UV-I 0 W/m 1,0 C 1,4 C 2,1 km/h (1 Bft)
18.01.2015 03:00 1,3 C 96 % 1018,5 hPa 0,0 l/m 0,5 km/h (0 Bft) N 0,00 h 0,000 mm 0,0 UV-I 0 W/m 0,8 C 1,3 C 1,8 km/h (1 Bft)
18.01.2015 04:00 1,1 C 96 % 1018,5 hPa 0,0 l/m 0,0 km/h (0 Bft) N 0,00 h 0,000 mm 0,0 UV-I 0 W/m 0,5 C 1,1 C 0,1 km/h (0 Bft)
18.01.2015 05:00 0,9 C 96 % 1018,4 hPa 0,0 l/m 0,0 km/h (0 Bft) N 0,00 h 0,000 mm 0,0 UV-I 0 W/m 0,3 C 0,9 C 0,2 km/h (0 Bft)
18.01.2015 06:00 0,7 C 96 % 1018,4 hPa 0,0 l/m 0,3 km/h (0 Bft) N 0,00 h 0,000 mm 0,0 UV-I 0 W/m 0,2 C 0,7 C 0,9 km/h (0 Bft)
18.01.2015 07:00 0,7 C 96 % 1018,6 hPa 0,0 l/m 0,0 km/h (0 Bft) N 0,00 h 0,000 mm 0,0 UV-I 0 W/m 0,1 C 0,7 C 0,1 km/h (0 Bft)
18.01.2015 08:00 0,6 C 96 % 1018,7 hPa 0,0 l/m 0,2 km/h (0 Bft) N 0,00 h 0,000 mm 0,0 UV-I 7 W/m 0,0 C 0,6 C 0,9 km/h (0 Bft)
18.01.2015 09:00 1,3 C 96 % 1018,6 hPa 0,0 l/m 1,4 km/h (1 Bft) N 0,70 h 0,000 mm 0,0 UV-I 85 W/m 0,7 C 1,3 C 3,0 km/h (1 Bft)
18.01.2015 10:00 1,9 C 94 % 1018,7 hPa 0,0 l/m 2,8 km/h (1 Bft) N 0,98 h 0,025 mm 0,5 UV-I 102 W/m 1,0 C 1,9 C 5,5 km/h (2 Bft)
18.01.2015 11:00 1,8 C 94 % 1018,4 hPa 0,0 l/m 2,4 km/h (1 Bft) N 0,72 h 0,025 mm 0,5 UV-I 64 W/m 0,9 C 1,8 C 4,3 km/h (1 Bft)
18.01.2015 12:00 1,7 C 95 % 1018,0 hPa 0,0 l/m 3,0 km/h (1 Bft) N 0,87 h 0,025 mm 0,5 UV-I 71 W/m 1,0 C 1,7 C 5,1 km/h (1 Bft)
18.01.2015 13:00 2,1 C 93 % 1017,4 hPa 0,0 l/m 1,1 km/h (0 Bft) N 1,00 h 0,025 mm 0,5 UV-I 95 W/m 1,2 C 2,1 C 2,7 km/h (1 Bft)
18.01.2015 14:00 2,5 C 92 % 1017,0 hPa 0,0 l/m 2,5 km/h (1 Bft) N 1,00 h 0,025 mm 0,0 UV-I 87 W/m 1,3 C 2,5 C 4,7 km/h (1 Bft)
18.01.2015 15:00 2,4 C 91 % 1016,7 hPa 0,0 l/m 1,5 km/h (1 Bft) S 0,33 h 0,025 mm 0,0 UV-I 43 W/m 1,1 C 2,4 C 3,3 km/h (1 Bft)
18.01.2015 16:00 2,2 C 92 % 1016,5 hPa 0,0 l/m 0,2 km/h (0 Bft) N 0,00 h 0,025 mm 0,0 UV-I 14 W/m 0,9 C 2,2 C 0,7 km/h (0 Bft)
18.01.2015 17:00 2,0 C 90 % 1016,3 hPa 0,0 l/m 0,1 km/h (0 Bft) N 0,00 h 0,000 mm 0,0 UV-I 0 W/m 0,6 C 2,0 C 0,8 km/h (0 Bft)
18.01.2015 18:00 1,9 C 92 % 1016,3 hPa 0,0 l/m 0,1 km/h (0 Bft) N 0,00 h 0,000 mm 0,0 UV-I 0 W/m 0,8 C 1,9 C 0,5 km/h (0 Bft)
18.01.2015 19:00 1,6 C 94 % 1016,4 hPa 0,0 l/m 0,2 km/h (0 Bft) N 0,00 h 0,000 mm 0,0 UV-I 0 W/m 0,7 C 1,6 C 0,5 km/h (0 Bft)
18.01.2015 20:00 1,4 C 94 % 1016,6 hPa 0,0 l/m 0,1 km/h (0 Bft) N 0,00 h 0,000 mm 0,0 UV-I 0 W/m 0,6 C 1,4 C 0,5 km/h (0 Bft)
18.01.2015 21:00 1,3 C 95 % 1016,5 hPa 0,0 l/m 0,1 km/h (0 Bft) N 0,00 h 0,000 mm 0,0 UV-I 0 W/m 0,6 C 1,3 C 0,2 km/h (0 Bft)
18.01.2015 22:00 1,3 C 95 % 1016,2 hPa 0,0 l/m 0,0 km/h (0 Bft) N 0,00 h 0,000 mm 0,0 UV-I 0 W/m 0,5 C 1,3 C 0,0 km/h (0 Bft)
18.01.2015 23:00 1,0 C 95 % 1016,0 hPa 0,0 l/m 0,1 km/h (0 Bft) N 0,00 h 0,000 mm 0,0 UV-I 0 W/m 0,3 C 1,0 C 0,8 km/h (0 Bft)
Min-Datum _ 16.01.15 13.01.15 16.01.15 - 12.01.15 - - - - - 13.01.15 14.01.15 13.01.15
_ Min-Zeit 04:48 12:46 21:57 - 21:22 - - - - - 06:42 19:22 08:30
Minimum _ -1,3 C 48 % 1007,1 hPa - 0,0 km/h (0 Bft) - - - - - -3,4 C -10,3 C 0,0 km/h (0 Bft)
Max-Datum _ 13.01.15 17.01.15 12.01.15 14.01.15 14.01.15 - 13.01.15 13.01.15 13.01.15 13.01.15 14.01.15 13.01.15 14.01.15
_ Max-Zeit 14:12 08:15 03:00 05:03 19:21 - 13:43 14:00 11:32 11:58 05:41 13:15 19:20
Maximum _ 9,1 C 97 % 1023,0 hPa 1,2 l/m 30,6 km/h
W-SW (5 Bft)
- 0,07 h 0,203 mm 0,9 UV-I 320 W/m 4,2 C 8,7 C 57,9 km/h
W-SW (7 Bft)
Durchschnitt _ 3,0 C 85 % 1014,7 hPa #7,2 l/m 5,9 km/h (2 Bft) N #32:39 h #3,610 mm 0,6 UV-I 81 W/m 0,5 C 1,3 C 9,6 km/h (2 Bft)